Terminal Aerodrome Forecast
Issued by NWS Mobile, AL

Home | Current Version | Previous Version | Text Only | Print | Product List | Glossary On
Versions: 1 2 3 4 5 6 7 8 9 10 11 12 13 14 15 16 17 18 19 20 21 22 23 24 25 26 27 28 29 30 31 32 33 34 35 36 37 38 39 40 41
000
FTUS44 KMOB 280531
TAFMOB
TAF
KMOB 280531Z 2806/2906 12005KT P6SM VCSH FEW070 SCT120 BKN200
     FM281400 14006KT P6SM VCSH SCT030 BKN120 PROB30 2816/2822 3SM
      TSRA BKN030CB
     FM290000 14005KT P6SM SCT100 BKN250=

USA.gov is the U.S. government's official web portal to all federal, state and local government web resources and services.